sensor_id;sensor_type;location;lat;lon;timestamp;P1;durP1;ratioP1;P2;durP2;ratioP2
21593;SDS011;10959;51.328;7.322;2023-05-10T00:01:05;1.33;;;1.23;;
21593;SDS011;10959;51.328;7.322;2023-05-10T00:03:32;1.50;;;1.20;;
21593;SDS011;10959;51.328;7.322;2023-05-10T00:05:59;1.33;;;1.23;;
21593;SDS011;10959;51.328;7.322;2023-05-10T00:08:25;1.23;;;1.13;;
21593;SDS011;10959;51.328;7.322;2023-05-10T00:10:52;1.20;;;1.10;;
21593;SDS011;10959;51.328;7.322;2023-05-10T00:13:20;1.23;;;1.13;;
21593;SDS011;10959;51.328;7.322;2023-05-10T00:15:47;0.90;;;0.83;;
21593;SDS011;10959;51.328;7.322;2023-05-10T00:18:14;2.20;;;0.97;;
21593;SDS011;10959;51.328;7.322;2023-05-10T00:20:40;1.13;;;0.83;;
21593;SDS011;10959;51.328;7.322;2023-05-10T00:23:07;1.30;;;1.10;;
21593;SDS011;10959;51.328;7.322;2023-05-10T00:25:33;1.30;;;1.20;;
21593;SDS011;10959;51.328;7.322;2023-05-10T00:28:00;1.27;;;1.17;;
21593;SDS011;10959;51.328;7.322;2023-05-10T00:30:28;1.53;;;1.27;;
21593;SDS011;10959;51.328;7.322;2023-05-10T00:32:54;1.50;;;1.40;;
21593;SDS011;10959;51.328;7.322;2023-05-10T00:35:21;2.27;;;1.30;;
21593;SDS011;10959;51.328;7.322;2023-05-10T00:37:47;2.00;;;1.67;;
21593;SDS011;10959;51.328;7.322;2023-05-10T00:40:14;3.33;;;2.10;;
21593;SDS011;10959;51.328;7.322;2023-05-10T00:42:41;2.43;;;2.13;;
21593;SDS011;10959;51.328;7.322;2023-05-10T00:45:07;3.10;;;2.17;;
21593;SDS011;10959;51.328;7.322;2023-05-10T00:47:36;2.33;;;2.13;;
21593;SDS011;10959;51.328;7.322;2023-05-10T00:50:02;3.00;;;2.70;;
21593;SDS011;10959;51.328;7.322;2023-05-10T00:52:31;2.30;;;2.10;;
21593;SDS011;10959;51.328;7.322;2023-05-10T00:54:57;2.73;;;2.53;;
21593;SDS011;10959;51.328;7.322;2023-05-10T00:57:24;3.60;;;2.70;;
21593;SDS011;10959;51.328;7.322;2023-05-10T00:59:51;3.20;;;2.90;;
21593;SDS011;10959;51.328;7.322;2023-05-10T01:02:17;3.70;;;3.40;;
21593;SDS011;10959;51.328;7.322;2023-05-10T01:04:45;3.33;;;3.03;;
21593;SDS011;10959;51.328;7.322;2023-05-10T01:07:12;3.10;;;2.80;;
21593;SDS011;10959;51.328;7.322;2023-05-10T01:09:38;3.20;;;2.83;;
21593;SDS011;10959;51.328;7.322;2023-05-10T01:12:05;3.60;;;3.13;;
21593;SDS011;10959;51.328;7.322;2023-05-10T01:14:33;2.70;;;2.50;;
21593;SDS011;10959;51.328;7.322;2023-05-10T01:17:01;3.00;;;2.80;;
21593;SDS011;10959;51.328;7.322;2023-05-10T01:19:29;3.83;;;3.43;;
21593;SDS011;10959;51.328;7.322;2023-05-10T01:22:02;4.03;;;3.63;;
21593;SDS011;10959;51.328;7.322;2023-05-10T01:27:47;3.33;;;3.03;;
21593;SDS011;10959;51.328;7.322;2023-05-10T01:33:23;3.30;;;3.00;;
21593;SDS011;10959;51.328;7.322;2023-05-10T01:35:54;3.90;;;3.50;;
21593;SDS011;10959;51.328;7.322;2023-05-10T01:38:29;4.43;;;4.03;;
21593;SDS011;10959;51.328;7.322;2023-05-10T01:41:07;3.70;;;3.40;;
21593;SDS011;10959;51.328;7.322;2023-05-10T01:43:50;3.70;;;3.40;;
21593;SDS011;10959;51.328;7.322;2023-05-10T01:46:24;2.73;;;2.53;;
21593;SDS011;10959;51.328;7.322;2023-05-10T01:48:58;4.40;;;3.57;;
21593;SDS011;10959;51.328;7.322;2023-05-10T01:51:29;4.10;;;3.70;;
21593;SDS011;10959;51.328;7.322;2023-05-10T01:54:02;4.40;;;4.00;;
21593;SDS011;10959;51.328;7.322;2023-05-10T01:56:31;5.20;;;4.70;;
21593;SDS011;10959;51.328;7.322;2023-05-10T01:59:00;4.40;;;4.00;;
21593;SDS011;10959;51.328;7.322;2023-05-10T02:01:33;4.33;;;3.93;;
21593;SDS011;10959;51.328;7.322;2023-05-10T02:04:02;4.83;;;4.33;;
21593;SDS011;10959;51.328;7.322;2023-05-10T02:06:30;5.20;;;4.57;;
21593;SDS011;10959;51.328;7.322;2023-05-10T02:08:59;4.83;;;4.43;;
21593;SDS011;10959;51.328;7.322;2023-05-10T02:11:27;5.50;;;5.00;;
21593;SDS011;10959;51.328;7.322;2023-05-10T02:13:55;5.83;;;5.33;;
21593;SDS011;10959;51.328;7.322;2023-05-10T02:16:24;5.90;;;5.40;;
21593;SDS011;10959;51.328;7.322;2023-05-10T02:18:55;7.23;;;6.53;;
21593;SDS011;10959;51.328;7.322;2023-05-10T02:21:26;9.67;;;8.77;;
21593;SDS011;10959;51.328;7.322;2023-05-10T02:23:55;9.83;;;8.67;;
21593;SDS011;10959;51.328;7.322;2023-05-10T02:26:23;11.47;;;10.37;;
21593;SDS011;10959;51.328;7.322;2023-05-10T02:28:52;11.30;;;10.20;;
21593;SDS011;10959;51.328;7.322;2023-05-10T02:31:20;10.50;;;9.57;;
21593;SDS011;10959;51.328;7.322;2023-05-10T02:33:48;10.53;;;9.53;;
21593;SDS011;10959;51.328;7.322;2023-05-10T02:36:15;11.43;;;10.33;;
21593;SDS011;10959;51.328;7.322;2023-05-10T02:38:44;9.57;;;8.77;;
21593;SDS011;10959;51.328;7.322;2023-05-10T02:41:13;9.87;;;8.97;;
21593;SDS011;10959;51.328;7.322;2023-05-10T02:43:40;8.70;;;7.90;;
21593;SDS011;10959;51.328;7.322;2023-05-10T02:46:08;9.10;;;8.30;;
21593;SDS011;10959;51.328;7.322;2023-05-10T02:48:35;11.03;;;9.57;;
21593;SDS011;10959;51.328;7.322;2023-05-10T02:51:04;10.23;;;9.33;;
21593;SDS011;10959;51.328;7.322;2023-05-10T02:53:33;8.97;;;8.07;;
21593;SDS011;10959;51.328;7.322;2023-05-10T02:56:04;8.73;;;7.90;;
21593;SDS011;10959;51.328;7.322;2023-05-10T02:58:38;9.83;;;8.87;;
21593;SDS011;10959;51.328;7.322;2023-05-10T03:01:05;9.50;;;7.97;;
21593;SDS011;10959;51.328;7.322;2023-05-10T03:03:32;9.53;;;8.10;;
21593;SDS011;10959;51.328;7.322;2023-05-10T03:05:59;7.63;;;6.83;;
21593;SDS011;10959;51.328;7.322;2023-05-10T03:08:25;8.50;;;7.57;;
21593;SDS011;10959;51.328;7.322;2023-05-10T03:10:55;8.80;;;7.90;;
21593;SDS011;10959;51.328;7.322;2023-05-10T03:13:36;9.83;;;7.87;;
21593;SDS011;10959;51.328;7.322;2023-05-10T03:16:12;7.60;;;6.83;;
21593;SDS011;10959;51.328;7.322;2023-05-10T03:18:42;8.00;;;7.27;;
21593;SDS011;10959;51.328;7.322;2023-05-10T03:21:12;9.50;;;7.70;;
21593;SDS011;10959;51.328;7.322;2023-05-10T03:23:43;9.87;;;8.70;;
21593;SDS011;10959;51.328;7.322;2023-05-10T03:26:14;10.67;;;9.57;;
21593;SDS011;10959;51.328;7.322;2023-05-10T03:28:45;10.33;;;8.50;;
21593;SDS011;10959;51.328;7.322;2023-05-10T03:31:14;8.80;;;7.90;;
21593;SDS011;10959;51.328;7.322;2023-05-10T03:33:45;9.73;;;8.30;;
21593;SDS011;10959;51.328;7.322;2023-05-10T03:36:13;9.17;;;8.10;;
21593;SDS011;10959;51.328;7.322;2023-05-10T03:38:39;9.73;;;8.73;;
21593;SDS011;10959;51.328;7.322;2023-05-10T03:41:06;9.73;;;8.83;;
21593;SDS011;10959;51.328;7.322;2023-05-10T03:43:34;10.43;;;9.13;;
21593;SDS011;10959;51.328;7.322;2023-05-10T03:46:01;10.30;;;9.27;;
21593;SDS011;10959;51.328;7.322;2023-05-10T03:48:28;11.40;;;10.30;;
21593;SDS011;10959;51.328;7.322;2023-05-10T03:50:55;11.60;;;10.07;;
21593;SDS011;10959;51.328;7.322;2023-05-10T03:53:21;10.20;;;9.20;;
21593;SDS011;10959;51.328;7.322;2023-05-10T03:55:48;9.97;;;8.87;;
21593;SDS011;10959;51.328;7.322;2023-05-10T03:58:14;10.50;;;9.50;;
21593;SDS011;10959;51.328;7.322;2023-05-10T04:00:42;10.87;;;9.87;;
21593;SDS011;10959;51.328;7.322;2023-05-10T04:03:10;11.57;;;10.47;;
21593;SDS011;10959;51.328;7.322;2023-05-10T04:05:37;10.93;;;9.80;;
21593;SDS011;10959;51.328;7.322;2023-05-10T04:08:03;10.60;;;9.57;;
21593;SDS011;10959;51.328;7.322;2023-05-10T04:10:30;10.23;;;9.23;;
21593;SDS011;10959;51.328;7.322;2023-05-10T04:12:57;12.30;;;11.10;;
21593;SDS011;10959;51.328;7.322;2023-05-10T04:15:24;11.37;;;10.27;;
21593;SDS011;10959;51.328;7.322;2023-05-10T04:17:52;12.60;;;11.33;;
21593;SDS011;10959;51.328;7.322;2023-05-10T04:20:19;12.73;;;11.30;;
21593;SDS011;10959;51.328;7.322;2023-05-10T04:22:46;13.20;;;11.90;;
21593;SDS011;10959;51.328;7.322;2023-05-10T04:25:13;12.87;;;11.67;;
21593;SDS011;10959;51.328;7.322;2023-05-10T04:27:39;13.07;;;11.80;;
21593;SDS011;10959;51.328;7.322;2023-05-10T04:30:07;13.70;;;12.40;;
21593;SDS011;10959;51.328;7.322;2023-05-10T04:32:34;14.63;;;13.20;;
21593;SDS011;10959;51.328;7.322;2023-05-10T04:35:02;13.80;;;12.50;;
21593;SDS011;10959;51.328;7.322;2023-05-10T04:37:29;14.77;;;13.27;;
21593;SDS011;10959;51.328;7.322;2023-05-10T04:39:56;14.80;;;13.17;;
21593;SDS011;10959;51.328;7.322;2023-05-10T04:42:22;14.27;;;12.77;;
21593;SDS011;10959;51.328;7.322;2023-05-10T04:44:49;14.60;;;13.10;;
21593;SDS011;10959;51.328;7.322;2023-05-10T04:47:16;14.13;;;12.73;;
21593;SDS011;10959;51.328;7.322;2023-05-10T04:49:43;13.97;;;12.43;;
21593;SDS011;10959;51.328;7.322;2023-05-10T04:52:11;13.73;;;12.07;;
21593;SDS011;10959;51.328;7.322;2023-05-10T04:54:38;15.43;;;13.93;;
21593;SDS011;10959;51.328;7.322;2023-05-10T04:57:05;14.37;;;12.03;;
21593;SDS011;10959;51.328;7.322;2023-05-10T04:59:31;14.03;;;11.90;;
21593;SDS011;10959;51.328;7.322;2023-05-10T05:01:57;14.33;;;12.83;;
21593;SDS011;10959;51.328;7.322;2023-05-10T05:04:24;14.07;;;12.67;;
21593;SDS011;10959;51.328;7.322;2023-05-10T05:06:50;15.00;;;13.47;;
21593;SDS011;10959;51.328;7.322;2023-05-10T05:09:18;17.07;;;13.77;;
21593;SDS011;10959;51.328;7.322;2023-05-10T05:11:45;16.90;;;14.47;;
21593;SDS011;10959;51.328;7.322;2023-05-10T05:14:11;17.83;;;15.10;;
21593;SDS011;10959;51.328;7.322;2023-05-10T05:16:37;19.37;;;15.37;;
21593;SDS011;10959;51.328;7.322;2023-05-10T05:19:04;17.80;;;15.90;;
21593;SDS011;10959;51.328;7.322;2023-05-10T05:21:30;22.10;;;17.93;;
21593;SDS011;10959;51.328;7.322;2023-05-10T05:23:57;20.93;;;16.63;;
21593;SDS011;10959;51.328;7.322;2023-05-10T05:26:25;20.43;;;18.23;;
21593;SDS011;10959;51.328;7.322;2023-05-10T05:28:52;19.10;;;16.60;;
21593;SDS011;10959;51.328;7.322;2023-05-10T05:31:19;19.33;;;17.23;;
21593;SDS011;10959;51.328;7.322;2023-05-10T05:33:46;18.47;;;14.97;;
21593;SDS011;10959;51.328;7.322;2023-05-10T05:36:12;23.90;;;19.17;;
21593;SDS011;10959;51.328;7.322;2023-05-10T05:38:39;19.67;;;17.50;;
21593;SDS011;10959;51.328;7.322;2023-05-10T05:41:05;22.80;;;19.00;;
21593;SDS011;10959;51.328;7.322;2023-05-10T05:43:33;21.47;;;18.53;;
21593;SDS011;10959;51.328;7.322;2023-05-10T05:45:59;21.87;;;18.60;;
21593;SDS011;10959;51.328;7.322;2023-05-10T05:48:26;24.00;;;18.03;;
21593;SDS011;10959;51.328;7.322;2023-05-10T05:50:54;23.30;;;19.20;;
21593;SDS011;10959;51.328;7.322;2023-05-10T05:53:21;29.13;;;21.40;;
21593;SDS011;10959;51.328;7.322;2023-05-10T05:55:51;21.67;;;18.33;;
21593;SDS011;10959;51.328;7.322;2023-05-10T05:58:18;22.50;;;18.17;;
21593;SDS011;10959;51.328;7.322;2023-05-10T06:00:46;24.17;;;19.93;;
21593;SDS011;10959;51.328;7.322;2023-05-10T06:03:13;27.20;;;20.63;;
21593;SDS011;10959;51.328;7.322;2023-05-10T06:05:40;26.40;;;21.77;;
21593;SDS011;10959;51.328;7.322;2023-05-10T06:08:07;27.90;;;21.87;;
21593;SDS011;10959;51.328;7.322;2023-05-10T06:10:33;23.67;;;19.17;;
21593;SDS011;10959;51.328;7.322;2023-05-10T06:12:59;26.00;;;19.47;;
21593;SDS011;10959;51.328;7.322;2023-05-10T06:15:26;21.53;;;19.13;;
21593;SDS011;10959;51.328;7.322;2023-05-10T06:17:54;24.27;;;19.50;;
21593;SDS011;10959;51.328;7.322;2023-05-10T06:20:21;23.23;;;19.23;;
21593;SDS011;10959;51.328;7.322;2023-05-10T06:22:47;25.73;;;19.87;;
21593;SDS011;10959;51.328;7.322;2023-05-10T06:25:13;27.93;;;22.27;;
21593;SDS011;10959;51.328;7.322;2023-05-10T06:27:42;24.33;;;19.23;;
21593;SDS011;10959;51.328;7.322;2023-05-10T06:30:09;21.83;;;18.73;;
21593;SDS011;10959;51.328;7.322;2023-05-10T06:32:38;22.23;;;18.43;;
21593;SDS011;10959;51.328;7.322;2023-05-10T06:35:06;22.37;;;18.90;;
21593;SDS011;10959;51.328;7.322;2023-05-10T06:37:33;21.10;;;17.20;;
21593;SDS011;10959;51.328;7.322;2023-05-10T06:40:00;21.17;;;17.57;;
21593;SDS011;10959;51.328;7.322;2023-05-10T06:42:26;25.53;;;18.80;;
21593;SDS011;10959;51.328;7.322;2023-05-10T06:44:53;22.60;;;18.13;;
21593;SDS011;10959;51.328;7.322;2023-05-10T06:47:19;21.80;;;17.87;;
21593;SDS011;10959;51.328;7.322;2023-05-10T06:49:46;22.80;;;18.53;;
21593;SDS011;10959;51.328;7.322;2023-05-10T06:52:14;21.60;;;16.83;;
21593;SDS011;10959;51.328;7.322;2023-05-10T06:54:41;21.57;;;17.80;;
21593;SDS011;10959;51.328;7.322;2023-05-10T06:57:07;22.73;;;16.87;;
21593;SDS011;10959;51.328;7.322;2023-05-10T06:59:34;22.90;;;18.13;;
21593;SDS011;10959;51.328;7.322;2023-05-10T07:02:01;19.93;;;16.53;;
21593;SDS011;10959;51.328;7.322;2023-05-10T07:04:28;18.77;;;16.07;;
21593;SDS011;10959;51.328;7.322;2023-05-10T07:06:55;18.50;;;15.03;;
21593;SDS011;10959;51.328;7.322;2023-05-10T07:09:23;18.43;;;14.77;;
21593;SDS011;10959;51.328;7.322;2023-05-10T07:11:50;22.37;;;16.37;;
21593;SDS011;10959;51.328;7.322;2023-05-10T07:14:16;18.53;;;14.63;;
21593;SDS011;10959;51.328;7.322;2023-05-10T07:16:42;20.20;;;16.27;;
21593;SDS011;10959;51.328;7.322;2023-05-10T07:19:09;19.90;;;15.67;;
21593;SDS011;10959;51.328;7.322;2023-05-10T07:21:35;15.47;;;13.03;;
21593;SDS011;10959;51.328;7.322;2023-05-10T07:24:02;16.83;;;13.43;;
21593;SDS011;10959;51.328;7.322;2023-05-10T07:26:30;16.47;;;13.97;;
21593;SDS011;10959;51.328;7.322;2023-05-10T07:28:56;16.53;;;14.13;;
21593;SDS011;10959;51.328;7.322;2023-05-10T07:31:23;15.77;;;13.93;;
21593;SDS011;10959;51.328;7.322;2023-05-10T07:33:49;17.83;;;14.27;;
21593;SDS011;10959;51.328;7.322;2023-05-10T07:36:16;14.87;;;11.80;;
21593;SDS011;10959;51.328;7.322;2023-05-10T07:38:42;15.23;;;11.90;;
21593;SDS011;10959;51.328;7.322;2023-05-10T07:41:09;13.47;;;11.97;;
21593;SDS011;10959;51.328;7.322;2023-05-10T07:43:37;15.43;;;12.60;;
21593;SDS011;10959;51.328;7.322;2023-05-10T07:46:03;13.93;;;12.53;;
21593;SDS011;10959;51.328;7.322;2023-05-10T07:48:30;14.17;;;12.50;;
21593;SDS011;10959;51.328;7.322;2023-05-10T07:50:56;13.97;;;12.17;;
21593;SDS011;10959;51.328;7.322;2023-05-10T07:53:23;14.00;;;12.30;;
21593;SDS011;10959;51.328;7.322;2023-05-10T07:55:50;14.33;;;12.20;;
21593;SDS011;10959;51.328;7.322;2023-05-10T07:58:16;13.37;;;12.00;;
21593;SDS011;10959;51.328;7.322;2023-05-10T08:00:44;13.23;;;11.83;;
21593;SDS011;10959;51.328;7.322;2023-05-10T08:03:11;13.40;;;11.97;;
21593;SDS011;10959;51.328;7.322;2023-05-10T08:05:37;14.10;;;11.17;;
21593;SDS011;10959;51.328;7.322;2023-05-10T08:08:04;13.30;;;11.83;;
21593;SDS011;10959;51.328;7.322;2023-05-10T08:10:30;13.97;;;12.40;;
21593;SDS011;10959;51.328;7.322;2023-05-10T08:12:57;15.57;;;12.50;;
21593;SDS011;10959;51.328;7.322;2023-05-10T08:15:24;13.53;;;12.13;;
21593;SDS011;10959;51.328;7.322;2023-05-10T08:17:52;15.33;;;13.70;;
21593;SDS011;10959;51.328;7.322;2023-05-10T08:20:19;15.93;;;13.97;;
21593;SDS011;10959;51.328;7.322;2023-05-10T08:22:46;16.60;;;14.53;;
21593;SDS011;10959;51.328;7.322;2023-05-10T08:25:13;14.93;;;13.43;;
21593;SDS011;10959;51.328;7.322;2023-05-10T08:27:39;16.07;;;13.60;;
21593;SDS011;10959;51.328;7.322;2023-05-10T08:30:07;13.67;;;12.07;;
21593;SDS011;10959;51.328;7.322;2023-05-10T08:32:34;16.20;;;14.50;;
21593;SDS011;10959;51.328;7.322;2023-05-10T08:35:05;16.70;;;13.97;;
21593;SDS011;10959;51.328;7.322;2023-05-10T08:37:31;14.13;;;12.03;;
21593;SDS011;10959;51.328;7.322;2023-05-10T08:39:58;13.77;;;12.23;;
21593;SDS011;10959;51.328;7.322;2023-05-10T08:42:25;12.17;;;10.97;;
21593;SDS011;10959;51.328;7.322;2023-05-10T08:44:54;11.93;;;10.73;;
21593;SDS011;10959;51.328;7.322;2023-05-10T08:47:23;11.57;;;10.40;;
21593;SDS011;10959;51.328;7.322;2023-05-10T08:49:50;14.70;;;11.13;;
21593;SDS011;10959;51.328;7.322;2023-05-10T08:52:18;11.33;;;10.07;;
21593;SDS011;10959;51.328;7.322;2023-05-10T08:54:46;11.20;;;9.70;;
21593;SDS011;10959;51.328;7.322;2023-05-10T08:57:14;10.33;;;9.03;;
21593;SDS011;10959;51.328;7.322;2023-05-10T08:59:40;9.43;;;8.43;;
21593;SDS011;10959;51.328;7.322;2023-05-10T09:02:07;8.67;;;7.77;;
21593;SDS011;10959;51.328;7.322;2023-05-10T09:04:36;9.20;;;8.30;;
21593;SDS011;10959;51.328;7.322;2023-05-10T09:07:02;10.27;;;8.50;;
21593;SDS011;10959;51.328;7.322;2023-05-10T09:09:30;9.63;;;8.63;;
21593;SDS011;10959;51.328;7.322;2023-05-10T09:11:57;9.33;;;8.43;;
21593;SDS011;10959;51.328;7.322;2023-05-10T09:14:24;10.13;;;7.90;;
21593;SDS011;10959;51.328;7.322;2023-05-10T09:16:51;10.83;;;8.87;;
21593;SDS011;10959;51.328;7.322;2023-05-10T09:19:19;10.33;;;9.23;;
21593;SDS011;10959;51.328;7.322;2023-05-10T09:21:45;10.67;;;8.00;;
21593;SDS011;10959;51.328;7.322;2023-05-10T09:24:12;10.57;;;9.47;;
21593;SDS011;10959;51.328;7.322;2023-05-10T09:26:46;9.53;;;7.37;;
21593;SDS011;10959;51.328;7.322;2023-05-10T09:29:14;9.10;;;7.60;;
21593;SDS011;10959;51.328;7.322;2023-05-10T09:31:44;9.53;;;8.03;;
21593;SDS011;10959;51.328;7.322;2023-05-10T09:34:15;10.50;;;8.87;;
21593;SDS011;10959;51.328;7.322;2023-05-10T09:36:55;10.20;;;8.07;;
21593;SDS011;10959;51.328;7.322;2023-05-10T09:39:32;9.60;;;8.17;;
21593;SDS011;10959;51.328;7.322;2023-05-10T09:42:01;11.27;;;8.30;;
21593;SDS011;10959;51.328;7.322;2023-05-10T09:44:29;11.00;;;8.50;;
21593;SDS011;10959;51.328;7.322;2023-05-10T09:46:56;8.03;;;7.23;;
21593;SDS011;10959;51.328;7.322;2023-05-10T09:49:23;11.13;;;8.20;;
21593;SDS011;10959;51.328;7.322;2023-05-10T09:52:03;11.43;;;7.80;;
21593;SDS011;10959;51.328;7.322;2023-05-10T09:54:30;11.63;;;9.43;;
21593;SDS011;10959;51.328;7.322;2023-05-10T09:56:57;11.43;;;9.03;;
21593;SDS011;10959;51.328;7.322;2023-05-10T09:59:26;12.50;;;10.07;;
21593;SDS011;10959;51.328;7.322;2023-05-10T10:01:55;11.33;;;9.50;;
21593;SDS011;10959;51.328;7.322;2023-05-10T10:04:22;12.57;;;10.53;;
21593;SDS011;10959;51.328;7.322;2023-05-10T10:06:58;13.23;;;9.47;;
21593;SDS011;10959;51.328;7.322;2023-05-10T10:09:25;11.53;;;9.73;;
21593;SDS011;10959;51.328;7.322;2023-05-10T10:11:52;11.37;;;9.67;;
21593;SDS011;10959;51.328;7.322;2023-05-10T10:14:21;12.67;;;9.67;;
21593;SDS011;10959;51.328;7.322;2023-05-10T10:16:49;10.47;;;8.97;;
21593;SDS011;10959;51.328;7.322;2023-05-10T10:19:16;11.13;;;9.83;;
21593;SDS011;10959;51.328;7.322;2023-05-10T10:21:44;12.33;;;11.03;;
21593;SDS011;10959;51.328;7.322;2023-05-10T10:24:10;12.00;;;9.77;;
21593;SDS011;10959;51.328;7.322;2023-05-10T10:26:36;14.53;;;10.70;;
21593;SDS011;10959;51.328;7.322;2023-05-10T10:29:08;14.47;;;11.43;;
21593;SDS011;10959;51.328;7.322;2023-05-10T10:31:45;16.63;;;13.20;;
21593;SDS011;10959;51.328;7.322;2023-05-10T10:34:21;21.07;;;14.87;;
21593;SDS011;10959;51.328;7.322;2023-05-10T10:36:51;17.80;;;13.20;;
21593;SDS011;10959;51.328;7.322;2023-05-10T10:39:20;17.70;;;13.60;;
21593;SDS011;10959;51.328;7.322;2023-05-10T10:41:50;16.80;;;14.30;;
21593;SDS011;10959;51.328;7.322;2023-05-10T10:44:25;20.90;;;15.53;;
21593;SDS011;10959;51.328;7.322;2023-05-10T10:46:59;19.67;;;16.07;;
21593;SDS011;10959;51.328;7.322;2023-05-10T10:49:50;22.47;;;17.27;;
21593;SDS011;10959;51.328;7.322;2023-05-10T10:52:24;21.50;;;15.63;;
21593;SDS011;10959;51.328;7.322;2023-05-10T10:54:57;21.57;;;16.73;;
21593;SDS011;10959;51.328;7.322;2023-05-10T10:57:26;16.73;;;13.80;;
21593;SDS011;10959;51.328;7.322;2023-05-10T11:02:47;22.10;;;17.13;;
21593;SDS011;10959;51.328;7.322;2023-05-10T11:08:10;17.30;;;15.23;;
21593;SDS011;10959;51.328;7.322;2023-05-10T11:10:39;15.57;;;11.67;;
21593;SDS011;10959;51.328;7.322;2023-05-10T11:13:16;13.63;;;11.13;;
21593;SDS011;10959;51.328;7.322;2023-05-10T11:15:53;14.03;;;11.20;;
21593;SDS011;10959;51.328;7.322;2023-05-10T11:18:23;12.77;;;9.63;;
21593;SDS011;10959;51.328;7.322;2023-05-10T11:20:52;13.80;;;11.13;;
21593;SDS011;10959;51.328;7.322;2023-05-10T11:23:21;14.50;;;10.70;;
21593;SDS011;10959;51.328;7.322;2023-05-10T11:25:48;13.07;;;10.10;;
21593;SDS011;10959;51.328;7.322;2023-05-10T11:28:16;11.03;;;9.40;;
21593;SDS011;10959;51.328;7.322;2023-05-10T11:30:44;11.27;;;9.30;;
21593;SDS011;10959;51.328;7.322;2023-05-10T11:33:14;10.37;;;8.93;;
21593;SDS011;10959;51.328;7.322;2023-05-10T11:35:42;10.57;;;8.93;;
21593;SDS011;10959;51.328;7.322;2023-05-10T11:38:11;10.47;;;8.57;;
21593;SDS011;10959;51.328;7.322;2023-05-10T11:40:41;11.90;;;8.70;;
21593;SDS011;10959;51.328;7.322;2023-05-10T11:43:08;9.27;;;8.07;;
21593;SDS011;10959;51.328;7.322;2023-05-10T11:45:36;13.97;;;10.00;;
21593;SDS011;10959;51.328;7.322;2023-05-10T11:48:03;13.50;;;10.77;;
21593;SDS011;10959;51.328;7.322;2023-05-10T11:50:30;13.37;;;10.30;;
21593;SDS011;10959;51.328;7.322;2023-05-10T11:52:56;12.53;;;10.60;;
21593;SDS011;10959;51.328;7.322;2023-05-10T11:55:25;12.77;;;11.37;;
21593;SDS011;10959;51.328;7.322;2023-05-10T11:57:52;13.63;;;10.43;;
21593;SDS011;10959;51.328;7.322;2023-05-10T12:00:19;12.67;;;9.80;;
21593;SDS011;10959;51.328;7.322;2023-05-10T12:02:46;11.03;;;9.77;;
21593;SDS011;10959;51.328;7.322;2023-05-10T12:05:12;10.17;;;8.87;;
21593;SDS011;10959;51.328;7.322;2023-05-10T12:07:39;11.83;;;10.17;;
21593;SDS011;10959;51.328;7.322;2023-05-10T12:10:06;11.47;;;9.43;;
21593;SDS011;10959;51.328;7.322;2023-05-10T12:12:40;13.17;;;9.63;;
21593;SDS011;10959;51.328;7.322;2023-05-10T12:15:11;12.00;;;9.30;;
21593;SDS011;10959;51.328;7.322;2023-05-10T12:17:38;12.37;;;8.97;;
21593;SDS011;10959;51.328;7.322;2023-05-10T12:20:12;8.60;;;7.57;;
21593;SDS011;10959;51.328;7.322;2023-05-10T12:22:40;12.03;;;8.67;;
21593;SDS011;10959;51.328;7.322;2023-05-10T12:25:08;9.33;;;8.23;;
21593;SDS011;10959;51.328;7.322;2023-05-10T12:27:35;10.33;;;8.27;;
21593;SDS011;10959;51.328;7.322;2023-05-10T12:30:03;8.83;;;7.80;;
21593;SDS011;10959;51.328;7.322;2023-05-10T12:32:37;10.37;;;8.23;;
21593;SDS011;10959;51.328;7.322;2023-05-10T12:35:04;11.43;;;9.20;;
21593;SDS011;10959;51.328;7.322;2023-05-10T12:37:31;10.23;;;9.13;;
21593;SDS011;10959;51.328;7.322;2023-05-10T12:40:00;10.43;;;8.60;;
21593;SDS011;10959;51.328;7.322;2023-05-10T12:42:27;8.40;;;7.33;;
21593;SDS011;10959;51.328;7.322;2023-05-10T12:44:54;11.13;;;8.60;;
21593;SDS011;10959;51.328;7.322;2023-05-10T12:47:23;9.43;;;7.47;;
21593;SDS011;10959;51.328;7.322;2023-05-10T12:49:49;7.93;;;7.10;;
21593;SDS011;10959;51.328;7.322;2023-05-10T12:52:16;9.07;;;8.07;;
21593;SDS011;10959;51.328;7.322;2023-05-10T12:54:42;9.77;;;8.30;;
21593;SDS011;10959;51.328;7.322;2023-05-10T12:57:09;10.37;;;8.17;;
21593;SDS011;10959;51.328;7.322;2023-05-10T12:59:36;9.00;;;8.10;;
21593;SDS011;10959;51.328;7.322;2023-05-10T13:02:02;10.60;;;9.10;;
21593;SDS011;10959;51.328;7.322;2023-05-10T13:04:30;10.20;;;9.17;;
21593;SDS011;10959;51.328;7.322;2023-05-10T13:06:57;11.67;;;10.40;;
21593;SDS011;10959;51.328;7.322;2023-05-10T13:09:23;12.30;;;10.27;;
21593;SDS011;10959;51.328;7.322;2023-05-10T13:11:51;11.30;;;9.40;;
21593;SDS011;10959;51.328;7.322;2023-05-10T13:14:18;11.60;;;10.40;;
21593;SDS011;10959;51.328;7.322;2023-05-10T13:16:46;11.57;;;10.33;;
21593;SDS011;10959;51.328;7.322;2023-05-10T13:19:13;10.83;;;9.70;;
21593;SDS011;10959;51.328;7.322;2023-05-10T13:21:41;12.90;;;11.13;;
21593;SDS011;10959;51.328;7.322;2023-05-10T13:24:07;11.47;;;10.07;;
21593;SDS011;10959;51.328;7.322;2023-05-10T13:26:34;12.63;;;10.43;;
21593;SDS011;10959;51.328;7.322;2023-05-10T13:29:01;10.87;;;9.77;;
21593;SDS011;10959;51.328;7.322;2023-05-10T13:31:28;10.33;;;9.30;;
21593;SDS011;10959;51.328;7.322;2023-05-10T13:33:55;12.37;;;9.20;;
21593;SDS011;10959;51.328;7.322;2023-05-10T13:36:21;10.97;;;9.50;;
21593;SDS011;10959;51.328;7.322;2023-05-10T13:38:49;11.10;;;10.00;;
21593;SDS011;10959;51.328;7.322;2023-05-10T13:41:15;9.73;;;8.73;;
21593;SDS011;10959;51.328;7.322;2023-05-10T13:43:42;10.77;;;9.53;;
21593;SDS011;10959;51.328;7.322;2023-05-10T13:46:09;10.97;;;9.60;;
21593;SDS011;10959;51.328;7.322;2023-05-10T13:48:35;9.93;;;8.93;;
21593;SDS011;10959;51.328;7.322;2023-05-10T13:51:02;10.47;;;9.07;;
21593;SDS011;10959;51.328;7.322;2023-05-10T13:53:28;9.97;;;8.97;;
21593;SDS011;10959;51.328;7.322;2023-05-10T13:55:56;10.80;;;9.30;;
21593;SDS011;10959;51.328;7.322;2023-05-10T13:58:23;11.00;;;9.40;;
21593;SDS011;10959;51.328;7.322;2023-05-10T14:00:49;10.20;;;9.10;;
21593;SDS011;10959;51.328;7.322;2023-05-10T14:03:16;9.80;;;8.53;;
21593;SDS011;10959;51.328;7.322;2023-05-10T14:05:43;11.80;;;8.50;;
21593;SDS011;10959;51.328;7.322;2023-05-10T14:08:10;10.70;;;8.73;;
21593;SDS011;10959;51.328;7.322;2023-05-10T14:10:38;9.30;;;8.30;;
21593;SDS011;10959;51.328;7.322;2023-05-10T14:13:05;9.93;;;8.87;;
21593;SDS011;10959;51.328;7.322;2023-05-10T14:15:33;11.27;;;8.93;;
21593;SDS011;10959;51.328;7.322;2023-05-10T14:18:00;9.70;;;8.70;;
21593;SDS011;10959;51.328;7.322;2023-05-10T14:20:26;9.70;;;8.80;;
21593;SDS011;10959;51.328;7.322;2023-05-10T14:22:53;10.23;;;9.00;;
21593;SDS011;10959;51.328;7.322;2023-05-10T14:25:19;9.97;;;8.97;;
21593;SDS011;10959;51.328;7.322;2023-05-10T14:27:46;9.63;;;8.73;;
21593;SDS011;10959;51.328;7.322;2023-05-10T14:30:14;11.93;;;9.47;;
21593;SDS011;10959;51.328;7.322;2023-05-10T14:32:41;11.63;;;9.67;;
21593;SDS011;10959;51.328;7.322;2023-05-10T14:35:07;10.10;;;9.10;;
21593;SDS011;10959;51.328;7.322;2023-05-10T14:37:34;10.03;;;8.87;;
21593;SDS011;10959;51.328;7.322;2023-05-10T14:40:01;11.75;;;9.90;;
21593;SDS011;10959;51.328;7.322;2023-05-10T14:42:29;9.57;;;8.67;;
21593;SDS011;10959;51.328;7.322;2023-05-10T14:44:56;11.32;;;9.52;;
21593;SDS011;10959;51.328;7.322;2023-05-10T14:47:24;10.25;;;9.25;;
21593;SDS011;10959;51.328;7.322;2023-05-10T14:49:50;12.50;;;10.25;;